Time;durP1;ratioP1;P1;durP2;ratioP2;P2;SDS_P1;SDS_P2;PMS_P1;PMS_P2;Temp;Humidity;BMP_temperature;BMP_pressure;BME280_temperature;BME280_humidity;BME280_pressure;Samples;Min_cycle;Max_cycle;Signal;HPM_P1;HPM_P2
2022/12/30 00:02:14;;;;;;;11.00;6.90;;;;;;;;;;108095;1259;39097;-40
2022/12/30 00:04:49;;;;;;;11.10;6.60;;;;;;;;;;108081;1271;40146;-41
2022/12/30 00:07:24;;;;;;;9.60;5.90;;;;;;;;;;108028;1259;43588;-41
2022/12/30 00:09:57;;;;;;;10.90;7.00;;;;;;;;;;108023;1259;42194;-41
2022/12/30 00:35:26;;;;;;;10.10;6.30;;;;;;;;;;108067;1271;45056;-41
2022/12/30 00:37:58;;;;;;;8.70;5.90;;;;;;;;;;108123;1268;40100;-41
2022/12/30 00:40:28;;;;;;;7.90;5.30;;;;;;;;;;108158;1269;43239;-41
2022/12/30 00:43:08;;;;;;;9.80;5.50;;;;;;;;;;108122;1257;42041;-41
2022/12/30 00:45:42;;;;;;;8.50;5.70;;;;;;;;;;108084;1262;47151;-41
2022/12/30 00:56:44;;;;;;;7.60;5.40;;;;;;;;;;108143;1272;40425;-40
2022/12/30 00:59:15;;;;;;;6.90;5.00;;;;;;;;;;108124;1257;40198;-41
2022/12/30 01:01:45;;;;;;;8.20;5.70;;;;;;;;;;107499;1269;916370;-40
2022/12/30 01:04:23;;;;;;;7.80;5.00;;;;;;;;;;108082;1275;42366;-41
2022/12/30 01:06:59;;;;;;;8.00;5.70;;;;;;;;;;108051;1272;39176;-41
2022/12/30 01:09:31;;;;;;;8.90;5.40;;;;;;;;;;108035;1271;40389;-40
2022/12/30 01:12:07;;;;;;;7.30;5.20;;;;;;;;;;108036;1262;43552;-38
2022/12/30 01:14:41;;;;;;;8.50;5.40;;;;;;;;;;107938;1263;42560;-38
2022/12/30 01:17:14;;;;;;;9.20;5.20;;;;;;;;;;108145;1262;38866;-39
2022/12/30 01:19:53;;;;;;;7.80;5.40;;;;;;;;;;108152;1271;40225;-38
2022/12/30 01:22:26;;;;;;;7.30;4.70;;;;;;;;;;108130;1270;43273;-38
2022/12/30 01:24:56;;;;;;;;;;;;;;;;;;108081;1262;42009;-38
2022/12/30 01:27:26;;;;;;;8.30;5.10;;;;;;;;;;108041;1274;37708;-39
2022/12/30 01:29:58;;;;;;;8.00;5.00;;;;;;;;;;108043;1271;40363;-41
2022/12/30 01:32:31;;;;;;;7.00;4.70;;;;;;;;;;107404;1259;894260;-38
2022/12/30 01:35:03;;;;;;;7.50;5.10;;;;;;;;;;107992;1262;42164;-40
2022/12/30 01:37:37;;;;;;;6.80;4.80;;;;;;;;;;108161;1257;39118;-39
2022/12/30 01:40:12;;;;;;;6.60;4.50;;;;;;;;;;108150;1262;40375;-38
2022/12/30 01:42:44;;;;;;;7.10;4.90;;;;;;;;;;108183;1262;43260;-39
2022/12/30 01:45:23;;;;;;;7.40;5.00;;;;;;;;;;108091;1262;42584;-39
2022/12/30 01:47:59;;;;;;;7.00;4.40;;;;;;;;;;108026;1274;38854;-38
2022/12/30 01:50:39;;;;;;;6.80;4.60;;;;;;;;;;108070;1268;40484;-39
2022/12/30 01:53:14;;;;;;;7.10;4.70;;;;;;;;;;108047;1259;43358;-40
2022/12/30 01:55:58;;;;;;;8.20;5.20;;;;;;;;;;108029;1270;42183;-38
2022/12/30 01:58:34;;;;;;;6.90;4.60;;;;;;;;;;108150;1274;38871;-38
2022/12/30 02:01:08;;;;;;;6.80;4.80;;;;;;;;;;108200;1262;40039;-38
2022/12/30 02:03:44;;;;;;;6.80;4.70;;;;;;;;;;108136;1262;43295;-38
2022/12/30 02:06:21;;;;;;;6.90;4.40;;;;;;;;;;108075;1262;42286;-39
2022/12/30 02:08:54;;;;;;;7.10;4.70;;;;;;;;;;108034;1262;38876;-38
2022/12/30 02:11:28;;;;;;;6.80;4.40;;;;;;;;;;107897;1275;40313;-41
2022/12/30 02:13:59;;;;;;;7.60;4.80;;;;;;;;;;107867;1262;175831;-38
2022/12/30 02:16:50;;;;;;;7.10;4.60;;;;;;;;;;108062;1266;43629;-38
2022/12/30 02:20:23;;;;;;;8.10;4.60;;;;;;;;;;108126;1266;38989;-38
2022/12/30 02:23:31;;;;;;;6.60;4.20;;;;;;;;;;108127;1272;40523;-38
2022/12/30 02:26:25;;;;;;;7.00;4.30;;;;;;;;;;108099;1262;43236;-38
2022/12/30 02:29:46;;;;;;;6.90;4.70;;;;;;;;;;108022;1270;42359;-38
2022/12/30 02:32:24;;;;;;;7.20;4.70;;;;;;;;;;108029;1270;40141;-38
2022/12/30 02:35:04;;;;;;;7.20;4.80;;;;;;;;;;108053;1275;43179;-38
2022/12/30 02:37:40;;;;;;;6.10;4.40;;;;;;;;;;108113;1261;43408;-38
2022/12/30 02:40:19;;;;;;;6.40;4.30;;;;;;;;;;108097;1270;42122;-39
2022/12/30 02:45:55;;;;;;;7.80;4.50;;;;;;;;;;108110;1272;40202;-39
2022/12/30 02:48:32;;;;;;;7.30;4.80;;;;;;;;;;107937;1265;43206;-38
2022/12/30 02:53:55;;;;;;;6.00;4.10;;;;;;;;;;108032;1272;38880;-39
2022/12/30 02:56:28;;;;;;;7.20;4.60;;;;;;;;;;108022;1262;41514;-38
2022/12/30 03:05:31;;;;;;;6.30;4.30;;;;;;;;;;108044;1257;39223;-39
2022/12/30 03:08:16;;;;;;;7.20;4.80;;;;;;;;;;107992;1265;40139;-38
2022/12/30 03:11:16;;;;;;;8.00;4.50;;;;;;;;;;108012;1270;43839;-39
2022/12/30 03:13:59;;;;;;;6.50;4.00;;;;;;;;;;108071;1259;44785;-38
2022/12/30 03:16:33;;;;;;;7.20;4.60;;;;;;;;;;108012;1258;38806;-38
2022/12/30 03:19:07;;;;;;;6.40;4.20;;;;;;;;;;108147;1262;40205;-39
2022/12/30 03:21:41;;;;;;;6.20;4.20;;;;;;;;;;108147;1273;45540;-38
2022/12/30 03:27:14;;;;;;;7.10;4.90;;;;;;;;;;108071;1262;39004;-38
2022/12/30 03:29:48;;;;;;;7.60;4.30;;;;;;;;;;108064;1260;41825;-39
2022/12/30 03:32:20;;;;;;;6.40;4.40;;;;;;;;;;108067;1262;43115;-38
2022/12/30 03:34:53;;;;;;;6.30;4.10;;;;;;;;;;108048;1270;42154;-38
2022/12/30 03:37:29;;;;;;;6.40;3.90;;;;;;;;;;108046;1271;38995;-39
2022/12/30 03:40:05;;;;;;;6.70;4.20;;;;;;;;;;108172;1268;41746;-39
2022/12/30 03:42:38;;;;;;;6.00;4.00;;;;;;;;;;108140;1271;44641;-38
2022/12/30 03:45:13;;;;;;;;;;;;;;;;;;108149;1262;42138;-39
2022/12/30 03:47:45;;;;;;;6.60;4.30;;;;;;;;;;108105;1262;39033;-39
2022/12/30 03:50:17;;;;;;;6.90;4.40;;;;;;;;;;107916;1271;175741;-36
2022/12/30 03:52:53;;;;;;;6.40;3.90;;;;;;;;;;108068;1268;43217;-39
2022/12/30 03:55:29;;;;;;;6.20;4.20;;;;;;;;;;108094;1271;42136;-39
2022/12/30 03:57:59;;;;;;;5.90;3.80;;;;;;;;;;108039;1263;39115;-39
2022/12/30 04:00:29;;;;;;;6.90;4.30;;;;;;;;;;108173;1269;40268;-39
2022/12/30 04:03:01;;;;;;;6.40;4.10;;;;;;;;;;108145;1269;43396;-39
2022/12/30 04:05:34;;;;;;;6.90;4.30;;;;;;;;;;108163;1267;42229;-40
2022/12/30 04:08:05;;;;;;;5.90;4.10;;;;;;;;;;108110;1262;38780;-39
2022/12/30 04:10:36;;;;;;;7.30;4.30;;;;;;;;;;108081;1261;40528;-39
2022/12/30 04:13:06;;;;;;;7.10;4.20;;;;;;;;;;107966;1265;43293;-39
2022/12/30 04:15:39;;;;;;;7.90;4.50;;;;;;;;;;108028;1275;42023;-39
2022/12/30 04:18:09;;;;;;;6.40;4.40;;;;;;;;;;108051;1267;38653;-39
2022/12/30 04:20:39;;;;;;;7.00;3.90;;;;;;;;;;108132;1273;40312;-39
2022/12/30 04:23:10;;;;;;;6.30;4.00;;;;;;;;;;108159;1262;43652;-39
2022/12/30 04:25:40;;;;;;;6.80;4.50;;;;;;;;;;108193;1261;42213;-39
2022/12/30 04:28:11;;;;;;;5.70;3.90;;;;;;;;;;108124;1262;39212;-39
2022/12/30 04:30:43;;;;;;;6.10;4.30;;;;;;;;;;108070;1262;39993;-39
2022/12/30 04:33:14;;;;;;;6.80;4.60;;;;;;;;;;108067;1262;43534;-39
2022/12/30 04:35:46;;;;;;;6.50;4.00;;;;;;;;;;108046;1262;43630;-40
2022/12/30 04:38:16;;;;;;;6.10;4.20;;;;;;;;;;108061;1262;38958;-39
2022/12/30 04:40:46;;;;;;;6.40;4.00;;;;;;;;;;108179;1262;39776;-39
2022/12/30 04:43:19;;;;;;;5.50;4.00;;;;;;;;;;108176;1272;43165;-39
2022/12/30 04:45:49;;;;;;;7.10;4.70;;;;;;;;;;108180;1262;42286;-39
2022/12/30 04:48:22;;;;;;;6.00;4.20;;;;;;;;;;108136;1271;38998;-39
2022/12/30 04:50:52;;;;;;;6.30;4.40;;;;;;;;;;108078;1262;40340;-39
2022/12/30 04:53:22;;;;;;;7.00;4.70;;;;;;;;;;108065;1263;43064;-39
2022/12/30 04:55:55;;;;;;;6.80;4.40;;;;;;;;;;108059;1262;42109;-41
2022/12/30 04:58:26;;;;;;;6.20;4.10;;;;;;;;;;108054;1259;38577;-39
2022/12/30 05:00:59;;;;;;;6.30;4.50;;;;;;;;;;108147;1272;41527;-40
2022/12/30 05:03:30;;;;;;;6.40;4.40;;;;;;;;;;108047;1273;43238;-39
2022/12/30 05:06:07;;;;;;;5.40;4.20;;;;;;;;;;108148;1262;42299;-39
2022/12/30 05:08:41;;;;;;;6.00;4.10;;;;;;;;;;108145;1260;38931;-40
2022/12/30 05:11:14;;;;;;;6.10;4.40;;;;;;;;;;108041;1262;40393;-39
2022/12/30 05:13:46;;;;;;;6.40;4.70;;;;;;;;;;108008;1271;43260;-39
2022/12/30 05:16:18;;;;;;;7.10;4.30;;;;;;;;;;108035;1275;42431;-39
2022/12/30 05:18:51;;;;;;;6.10;4.00;;;;;;;;;;108045;1262;40144;-39
2022/12/30 05:21:21;;;;;;;6.10;4.30;;;;;;;;;;108174;1272;40375;-40
2022/12/30 05:26:40;;;;;;;5.80;4.30;;;;;;;;;;108189;1263;42224;-39
2022/12/30 05:29:11;;;;;;;6.50;4.50;;;;;;;;;;108136;1259;38984;-39
2022/12/30 05:31:43;;;;;;;6.50;4.40;;;;;;;;;;108061;1262;40064;-39
2022/12/30 05:34:13;;;;;;;6.30;4.30;;;;;;;;;;108089;1262;44420;-39
2022/12/30 05:36:46;;;;;;;6.20;4.10;;;;;;;;;;108063;1267;42836;-39
2022/12/30 05:39:16;;;;;;;6.90;4.40;;;;;;;;;;108046;1262;38679;-39
2022/12/30 05:41:46;;;;;;;6.50;4.10;;;;;;;;;;108057;1262;175787;-39
2022/12/30 05:44:17;;;;;;;6.70;3.70;;;;;;;;;;108180;1267;44391;-39
2022/12/30 05:46:49;;;;;;;6.50;4.40;;;;;;;;;;108189;1271;43376;-39
2022/12/30 05:49:22;;;;;;;6.70;4.20;;;;;;;;;;108164;1259;38889;-39
2022/12/30 05:51:55;;;;;;;6.00;4.30;;;;;;;;;;108113;1262;41882;-40
2022/12/30 05:54:28;;;;;;;6.60;4.20;;;;;;;;;;108071;1272;43194;-40
2022/12/30 05:56:58;;;;;;;6.40;4.10;;;;;;;;;;108110;1274;42363;-39
2022/12/30 05:59:29;;;;;;;6.50;4.10;;;;;;;;;;108032;1258;38841;-40
2022/12/30 06:02:01;;;;;;;6.30;4.00;;;;;;;;;;108200;1273;40384;-39
2022/12/30 06:04:32;;;;;;;6.80;4.60;;;;;;;;;;107967;1275;175704;-40
2022/12/30 06:07:04;;;;;;;5.50;4.20;;;;;;;;;;108243;1269;42149;-40
2022/12/30 06:09:35;;;;;;;6.10;4.20;;;;;;;;;;108192;1271;38835;-39
2022/12/30 06:12:06;;;;;;;5.90;4.20;;;;;;;;;;108072;1259;47444;-40
2022/12/30 06:14:38;;;;;;;5.80;4.00;;;;;;;;;;108070;1275;44362;-39
2022/12/30 06:17:18;;;;;;;6.80;4.30;;;;;;;;;;108078;1274;42304;-39
2022/12/30 06:19:53;;;;;;;6.40;4.00;;;;;;;;;;107989;1266;38626;-40
2022/12/30 06:22:23;;;;;;;5.90;4.40;;;;;;;;;;108156;1269;48457;-40
2022/12/30 06:24:58;;;;;;;5.90;3.80;;;;;;;;;;108195;1273;44563;-35
2022/12/30 06:27:33;;;;;;;6.40;3.90;;;;;;;;;;108142;1263;43473;-35
2022/12/30 06:30:04;;;;;;;6.10;4.40;;;;;;;;;;108117;1260;40018;-36
2022/12/30 06:32:37;;;;;;;6.40;4.40;;;;;;;;;;108032;1262;41655;-36
2022/12/30 06:35:10;;;;;;;5.40;3.80;;;;;;;;;;108070;1262;43009;-36
2022/12/30 06:37:42;;;;;;;5.60;3.90;;;;;;;;;;108067;1274;42228;-38
2022/12/30 06:40:14;;;;;;;5.50;3.90;;;;;;;;;;108025;1262;38756;-36
2022/12/30 06:42:44;;;;;;;6.60;4.10;;;;;;;;;;108156;1262;40363;-36
2022/12/30 06:45:14;;;;;;;6.60;4.10;;;;;;;;;;108128;1272;42699;-38
2022/12/30 06:47:47;;;;;;;6.30;4.30;;;;;;;;;;108162;1272;42177;-40
2022/12/30 06:50:20;;;;;;;6.00;3.90;;;;;;;;;;108017;1269;175698;-39
2022/12/30 06:52:50;;;;;;;5.90;4.00;;;;;;;;;;107952;1269;46065;-38
2022/12/30 06:55:22;;;;;;;5.70;4.10;;;;;;;;;;107976;1271;43371;-39
2022/12/30 06:57:53;;;;;;;6.90;4.00;;;;;;;;;;107944;1272;44544;-38
2022/12/30 07:00:24;;;;;;;5.90;4.00;;;;;;;;;;108011;1271;38899;-40
2022/12/30 07:02:55;;;;;;;6.00;4.20;;;;;;;;;;108108;1258;40374;-41
2022/12/30 07:05:25;;;;;;;6.10;3.80;;;;;;;;;;108182;1269;43374;-41
2022/12/30 07:07:58;;;;;;;5.00;3.60;;;;;;;;;;108109;1262;175705;-40
2022/12/30 07:10:29;;;;;;;5.80;4.00;;;;;;;;;;108186;1269;40039;-37
2022/12/30 07:13:02;;;;;;;5.80;3.80;;;;;;;;;;108014;1262;41602;-37
2022/12/30 07:15:32;;;;;;;5.60;3.80;;;;;;;;;;108056;1270;43406;-36
2022/12/30 07:18:06;;;;;;;5.80;4.10;;;;;;;;;;108041;1262;42302;-36
2022/12/30 07:20:39;;;;;;;5.10;3.50;;;;;;;;;;108052;1270;38909;-39
2022/12/30 07:23:10;;;;;;;6.60;4.30;;;;;;;;;;108059;1263;42626;-39
2022/12/30 07:25:43;;;;;;;5.80;4.10;;;;;;;;;;108119;1263;43345;-39
2022/12/30 07:28:15;;;;;;;6.00;3.80;;;;;;;;;;108021;1270;42212;-39
2022/12/30 07:30:46;;;;;;;6.10;4.40;;;;;;;;;;108160;1275;39076;-39
2022/12/30 07:33:16;;;;;;;5.40;3.60;;;;;;;;;;107950;1264;42946;-39
2022/12/30 07:35:50;;;;;;;6.30;4.20;;;;;;;;;;108029;1262;43266;-39
2022/12/30 07:38:26;;;;;;;6.10;4.10;;;;;;;;;;108017;1273;42302;-39
2022/12/30 07:40:59;;;;;;;6.40;4.20;;;;;;;;;;108035;1272;39205;-39
2022/12/30 07:43:29;;;;;;;6.10;4.10;;;;;;;;;;108077;1262;40055;-39
2022/12/30 07:46:06;;;;;;;5.90;4.00;;;;;;;;;;108111;1262;43303;-38
2022/12/30 07:48:36;;;;;;;5.90;4.20;;;;;;;;;;108129;1269;42279;-38
2022/12/30 07:51:15;;;;;;;5.90;4.00;;;;;;;;;;108017;1263;38803;-39
2022/12/30 07:53:45;;;;;;;5.30;3.70;;;;;;;;;;107981;1266;40138;-39
2022/12/30 07:56:18;;;;;;;6.00;4.00;;;;;;;;;;107995;1271;44416;-39
2022/12/30 07:58:49;;;;;;;5.40;4.00;;;;;;;;;;108008;1273;42313;-40
2022/12/30 08:01:20;;;;;;;6.40;4.20;;;;;;;;;;108013;1264;38621;-39
2022/12/30 08:03:52;;;;;;;6.20;3.70;;;;;;;;;;108068;1262;40064;-39
2022/12/30 08:06:25;;;;;;;6.20;3.90;;;;;;;;;;108088;1272;43367;-39
2022/12/30 08:08:55;;;;;;;6.80;3.90;;;;;;;;;;108130;1272;42241;-39
2022/12/30 08:11:28;;;;;;;5.90;4.20;;;;;;;;;;108138;1264;37840;-39
2022/12/30 08:14:01;;;;;;;6.60;4.20;;;;;;;;;;107982;1272;40222;-41
2022/12/30 08:16:31;;;;;;;5.70;3.80;;;;;;;;;;108002;1262;43356;-40
2022/12/30 08:19:04;;;;;;;5.40;3.50;;;;;;;;;;108021;1262;42594;-39
2022/12/30 08:21:33;;;;;;;6.30;4.10;;;;;;;;;;108016;1272;37861;-39
2022/12/30 08:24:05;;;;;;;6.00;3.90;;;;;;;;;;108080;1262;40074;-39
2022/12/30 08:26:36;;;;;;;5.80;4.00;;;;;;;;;;108161;1263;44620;-38
2022/12/30 08:29:08;;;;;;;7.90;4.10;;;;;;;;;;108160;1263;42135;-39
2022/12/30 08:31:38;;;;;;;8.30;4.40;;;;;;;;;;108153;1273;39131;-39
2022/12/30 08:34:08;;;;;;;6.50;3.90;;;;;;;;;;108029;1263;41236;-39
2022/12/30 08:36:39;;;;;;;6.30;3.70;;;;;;;;;;108028;1262;42618;-39
2022/12/30 08:39:10;;;;;;;6.40;4.10;;;;;;;;;;107907;1276;175736;-39
2022/12/30 08:41:45;;;;;;;6.90;3.80;;;;;;;;;;108030;1276;38721;-38
2022/12/30 08:44:32;;;;;;;6.40;3.80;;;;;;;;;;108068;1271;40442;-39
2022/12/30 08:47:08;;;;;;;6.00;3.80;;;;;;;;;;108152;1262;43582;-39
2022/12/30 08:49:40;;;;;;;6.20;3.60;;;;;;;;;;107989;1262;42189;-39
2022/12/30 08:52:12;;;;;;;9.60;4.20;;;;;;;;;;108132;1263;38940;-39
2022/12/30 08:54:45;;;;;;;7.00;4.00;;;;;;;;;;107996;1262;40140;-39
2022/12/30 08:57:18;;;;;;;8.90;4.00;;;;;;;;;;107982;1269;43351;-39
2022/12/30 08:59:50;;;;;;;8.00;3.80;;;;;;;;;;108033;1272;42175;-39
2022/12/30 09:02:20;;;;;;;6.40;3.80;;;;;;;;;;108009;1273;38821;-38
2022/12/30 09:04:55;;;;;;;6.60;3.80;;;;;;;;;;108058;1272;40162;-39
2022/12/30 09:07:28;;;;;;;7.50;4.50;;;;;;;;;;108124;1272;43256;-39
2022/12/30 09:10:22;;;;;;;6.80;4.70;;;;;;;;;;108132;1273;42165;-39
2022/12/30 09:12:51;;;;;;;;;;;;;;;;;;108157;1271;38994;-39
2022/12/30 09:15:21;;;;;;;6.60;3.80;;;;;;;;;;108009;1267;39770;-39
2022/12/30 09:17:53;;;;;;;8.30;4.00;;;;;;;;;;108060;1271;43310;-39
2022/12/30 09:20:26;;;;;;;7.30;4.20;;;;;;;;;;108015;1272;42021;-39
2022/12/30 09:22:56;;;;;;;8.00;3.90;;;;;;;;;;108045;1262;40362;-39
2022/12/30 09:25:29;;;;;;;7.10;4.10;;;;;;;;;;108075;1263;40315;-39
2022/12/30 09:27:59;;;;;;;6.90;4.20;;;;;;;;;;108159;1263;43575;-39
2022/12/30 09:30:29;;;;;;;7.60;4.00;;;;;;;;;;108140;1276;42431;-39
2022/12/30 09:33:02;;;;;;;6.80;4.20;;;;;;;;;;108146;1274;39177;-41
2022/12/30 09:35:35;;;;;;;7.20;4.50;;;;;;;;;;108024;1272;40805;-39
2022/12/30 09:38:10;;;;;;;6.70;4.00;;;;;;;;;;108012;1264;43248;-38
2022/12/30 09:40:50;;;;;;;6.50;4.00;;;;;;;;;;108039;1264;42132;-39
2022/12/30 09:43:30;;;;;;;6.50;4.20;;;;;;;;;;108042;1271;38812;-39
2022/12/30 09:46:35;;;;;;;7.10;4.70;;;;;;;;;;108124;1258;40369;-39
2022/12/30 09:49:28;;;;;;;7.80;3.80;;;;;;;;;;107473;1264;916387;-39
2022/12/30 09:52:11;;;;;;;6.30;3.80;;;;;;;;;;108223;1260;43506;-37
2022/12/30 09:54:51;;;;;;;6.50;3.90;;;;;;;;;;108239;1260;38944;-37
2022/12/30 09:57:33;;;;;;;5.90;3.60;;;;;;;;;;108193;1270;39994;-38
2022/12/30 10:00:15;;;;;;;7.20;3.90;;;;;;;;;;108213;1270;43379;-38
2022/12/30 10:02:58;;;;;;;7.20;4.10;;;;;;;;;;108205;1269;42282;-38
2022/12/30 10:05:41;;;;;;;6.80;3.40;;;;;;;;;;108207;1263;38908;-37
2022/12/30 10:08:22;;;;;;;;;;;;;;;;;;108312;1270;40407;-37
2022/12/30 10:10:59;;;;;;;6.90;3.20;;;;;;;;;;108261;1273;43308;-38
2022/12/30 10:13:39;;;;;;;5.50;2.70;;;;;;;;;;108301;1269;42204;-37
2022/12/30 10:16:25;;;;;;;5.70;3.00;;;;;;;;;;108047;1260;175687;-38
2022/12/30 10:19:12;;;;;;;5.80;2.70;;;;;;;;;;108214;1269;40603;-38
2022/12/30 10:21:57;;;;;;;6.10;2.90;;;;;;;;;;108182;1273;43148;-38
2022/12/30 10:24:45;;;;;;;6.30;3.10;;;;;;;;;;108004;1270;43411;-37
2022/12/30 10:27:23;;;;;;;4.80;3.20;;;;;;;;;;108122;1264;45789;-37
2022/12/30 10:29:54;;;;;;;5.40;2.70;;;;;;;;;;108114;1273;40576;-37
2022/12/30 10:32:33;;;;;;;5.50;2.60;;;;;;;;;;107991;1261;177535;-37
2022/12/30 10:35:15;;;;;;;5.40;2.60;;;;;;;;;;108111;1271;43715;-37
2022/12/30 10:37:49;;;;;;;5.80;2.60;;;;;;;;;;108115;1272;44588;-37
2022/12/30 10:40:19;;;;;;;5.40;2.90;;;;;;;;;;108010;1267;40197;-38
2022/12/30 10:43:24;;;;;;;5.00;2.60;;;;;;;;;;108031;1274;44734;-38
2022/12/30 10:46:10;;;;;;;5.70;2.70;;;;;;;;;;107979;1258;42645;-37
2022/12/30 10:49:03;;;;;;;5.80;2.80;;;;;;;;;;108130;1268;38854;-38
2022/12/30 10:51:37;;;;;;;5.40;2.70;;;;;;;;;;108116;1270;40418;-38
2022/12/30 10:54:09;;;;;;;;;;;;;;;;;;108104;1264;44245;-37
2022/12/30 10:56:40;;;;;;;5.40;2.70;;;;;;;;;;108060;1262;41823;-37
2022/12/30 10:59:20;;;;;;;6.80;2.90;;;;;;;;;;108110;1262;40089;-37
2022/12/30 11:02:02;;;;;;;5.00;2.50;;;;;;;;;;108075;1264;40327;-38
2022/12/30 11:04:37;;;;;;;4.70;2.50;;;;;;;;;;108072;1273;43482;-38
2022/12/30 11:07:11;;;;;;;5.10;2.90;;;;;;;;;;108145;1261;42355;-36
2022/12/30 11:09:50;;;;;;;5.20;2.40;;;;;;;;;;108207;1260;38970;-37
2022/12/30 11:15:30;;;;;;;4.50;2.30;;;;;;;;;;108158;1261;44464;-37
2022/12/30 11:18:08;;;;;;;4.90;2.50;;;;;;;;;;108079;1271;43558;-37
2022/12/30 11:20:42;;;;;;;5.40;2.70;;;;;;;;;;108114;1263;38882;-37
2022/12/30 11:23:29;;;;;;;5.50;2.50;;;;;;;;;;108122;1273;40207;-37
2022/12/30 11:26:03;;;;;;;4.80;2.50;;;;;;;;;;108133;1270;44447;-37
2022/12/30 11:28:38;;;;;;;5.60;2.50;;;;;;;;;;108165;1261;43564;-37
2022/12/30 11:31:11;;;;;;;5.40;2.20;;;;;;;;;;108218;1270;40576;-38
2022/12/30 11:33:52;;;;;;;5.60;2.70;;;;;;;;;;108198;1270;40191;-38
2022/12/30 11:36:36;;;;;;;4.50;2.10;;;;;;;;;;108166;1273;44497;-37
2022/12/30 11:39:37;;;;;;;6.60;2.20;;;;;;;;;;108076;1263;48160;-37
2022/12/30 11:42:30;;;;;;;4.50;2.10;;;;;;;;;;108117;1271;38977;-37
2022/12/30 11:45:17;;;;;;;3.90;1.90;;;;;;;;;;108089;1270;40184;-37
2022/12/30 11:47:51;;;;;;;5.30;2.40;;;;;;;;;;108112;1257;43353;-37
2022/12/30 11:50:24;;;;;;;5.00;2.20;;;;;;;;;;108174;1261;42214;-37
2022/12/30 11:53:02;;;;;;;4.50;2.00;;;;;;;;;;108213;1273;38971;-37
2022/12/30 11:55:38;;;;;;;5.30;2.20;;;;;;;;;;108211;1273;40193;-37
2022/12/30 11:58:13;;;;;;;5.00;2.20;;;;;;;;;;108110;1263;43513;-37
2022/12/30 12:00:49;;;;;;;4.60;1.90;;;;;;;;;;108124;1273;42386;-37
2022/12/30 12:03:24;;;;;;;4.70;1.90;;;;;;;;;;108088;1264;38694;-37
2022/12/30 12:06:08;;;;;;;5.40;2.30;;;;;;;;;;107972;1257;175745;-37
2022/12/30 12:08:51;;;;;;;4.10;2.10;;;;;;;;;;108116;1269;43082;-37
2022/12/30 12:11:26;;;;;;;4.50;2.10;;;;;;;;;;108202;1269;42421;-37
2022/12/30 12:14:07;;;;;;;5.10;2.30;;;;;;;;;;107530;1260;911287;-37
2022/12/30 12:16:55;;;;;;;4.50;2.10;;;;;;;;;;108159;1260;40302;-37
2022/12/30 12:19:37;;;;;;;4.10;1.80;;;;;;;;;;108102;1263;43159;-38
2022/12/30 12:22:22;;;;;;;5.10;2.00;;;;;;;;;;108088;1263;42508;-38
2022/12/30 12:25:03;;;;;;;4.20;1.70;;;;;;;;;;108106;1268;40120;-38
2022/12/30 12:27:38;;;;;;;4.60;2.00;;;;;;;;;;108133;1262;40167;-38
2022/12/30 12:30:17;;;;;;;4.00;1.70;;;;;;;;;;108108;1258;48943;-38
2022/12/30 12:33:11;;;;;;;4.60;1.80;;;;;;;;;;108124;1262;41971;-37
2022/12/30 12:35:50;;;;;;;4.70;2.00;;;;;;;;;;108105;1267;38840;-37
2022/12/30 12:38:42;;;;;;;4.20;1.80;;;;;;;;;;108053;1258;40144;-37
2022/12/30 12:41:44;;;;;;;5.30;2.00;;;;;;;;;;108188;1270;43492;-37
2022/12/30 12:44:43;;;;;;;4.10;1.90;;;;;;;;;;108174;1260;42651;-37
2022/12/30 12:47:35;;;;;;;4.80;2.00;;;;;;;;;;108028;1257;38964;-38
2022/12/30 12:50:40;;;;;;;5.50;1.90;;;;;;;;;;108110;1262;41516;-38
2022/12/30 12:53:45;;;;;;;5.20;2.50;;;;;;;;;;108041;1261;43244;-37
2022/12/30 12:56:45;;;;;;;7.00;2.40;;;;;;;;;;108095;1267;42481;-43
2022/12/30 12:59:34;;;;;;;6.40;2.90;;;;;;;;;;108069;1258;38921;-44
2022/12/30 13:02:25;;;;;;;7.00;3.20;;;;;;;;;;108107;1263;40371;-44
2022/12/30 13:05:26;;;;;;;7.90;4.00;;;;;;;;;;108144;1270;43438;-40
2022/12/30 13:08:10;;;;;;;9.40;3.30;;;;;;;;;;108150;1267;43523;-40
2022/12/30 13:11:00;;;;;;;7.70;3.90;;;;;;;;;;108079;1262;41041;-42
2022/12/30 13:13:57;;;;;;;9.30;4.20;;;;;;;;;;108073;1263;40574;-40
2022/12/30 13:16:40;;;;;;;9.30;4.20;;;;;;;;;;107934;1273;175648;-42
2022/12/30 13:19:18;;;;;;;9.00;4.70;;;;;;;;;;108039;1258;42434;-42
2022/12/30 13:21:53;;;;;;;9.20;5.10;;;;;;;;;;108192;1272;40265;-39
2022/12/30 13:24:32;;;;;;;10.30;5.00;;;;;;;;;;107943;1261;292898;-39
2022/12/30 13:27:05;;;;;;;8.50;4.70;;;;;;;;;;108153;1264;43760;-39
2022/12/30 13:29:39;;;;;;;10.00;5.30;;;;;;;;;;108063;1263;42599;-38
2022/12/30 13:32:16;;;;;;;9.40;4.90;;;;;;;;;;108045;1273;40775;-39
2022/12/30 13:34:53;;;;;;;11.10;5.00;;;;;;;;;;108066;1270;40839;-38
2022/12/30 13:37:34;;;;;;;10.00;4.60;;;;;;;;;;107957;1275;43526;-38
2022/12/30 13:40:12;;;;;;;;;;;;;;;;;;108020;1257;42569;-36
2022/12/30 13:43:09;;;;;;;11.30;5.50;;;;;;;;;;108183;1270;39307;-42
2022/12/30 13:45:48;;;;;;;11.60;5.30;;;;;;;;;;108270;1264;40694;-43
2022/12/30 13:48:22;;;;;;;10.30;5.20;;;;;;;;;;108282;1263;43413;-41
2022/12/30 13:51:03;;;;;;;11.70;5.20;;;;;;;;;;108138;1264;42409;-39
2022/12/30 13:53:45;;;;;;;10.20;4.80;;;;;;;;;;108044;1265;39226;-39
2022/12/30 13:56:20;;;;;;;9.80;4.80;;;;;;;;;;108069;1264;40472;-40
2022/12/30 13:58:52;;;;;;;9.60;4.80;;;;;;;;;;107946;1273;43451;-39
2022/12/30 14:01:31;;;;;;;9.10;4.30;;;;;;;;;;108073;1260;42580;-39
2022/12/30 14:04:44;;;;;;;9.70;4.20;;;;;;;;;;108130;1270;39358;-40
2022/12/30 14:07:49;;;;;;;9.10;4.60;;;;;;;;;;108067;1261;40704;-38
2022/12/30 14:10:45;;;;;;;8.40;4.00;;;;;;;;;;108242;1263;43575;-38
2022/12/30 14:13:37;;;;;;;8.50;4.00;;;;;;;;;;108236;1274;42573;-39
2022/12/30 14:16:42;;;;;;;10.20;4.60;;;;;;;;;;108355;1257;39134;-39
2022/12/30 14:19:24;;;;;;;9.80;4.10;;;;;;;;;;108266;1272;40606;-41
2022/12/30 14:21:55;;;;;;;8.50;4.20;;;;;;;;;;108295;1260;43888;-39
2022/12/30 14:24:52;;;;;;;8.40;3.90;;;;;;;;;;108222;1269;42543;-41
2022/12/30 14:27:47;;;;;;;10.90;4.10;;;;;;;;;;108175;1273;39098;-41
2022/12/30 14:30:33;;;;;;;9.00;3.80;;;;;;;;;;108115;1273;40715;-40
2022/12/30 14:33:18;;;;;;;8.50;4.10;;;;;;;;;;108057;1262;49740;-39
2022/12/30 14:35:59;;;;;;;8.60;3.60;;;;;;;;;;108061;1262;42382;-40
2022/12/30 14:38:35;;;;;;;8.90;3.70;;;;;;;;;;107926;1273;38988;-40
2022/12/30 14:41:09;;;;;;;7.60;3.40;;;;;;;;;;108040;1257;40513;-40
2022/12/30 14:43:51;;;;;;;8.90;3.60;;;;;;;;;;108094;1262;43919;-37
2022/12/30 14:47:01;;;;;;;8.30;3.60;;;;;;;;;;108116;1262;42731;-38
2022/12/30 14:49:39;;;;;;;9.70;3.40;;;;;;;;;;108134;1260;38957;-38
2022/12/30 14:52:22;;;;;;;8.40;3.50;;;;;;;;;;108129;1262;40431;-38
2022/12/30 14:55:10;;;;;;;9.20;3.80;;;;;;;;;;108106;1273;43532;-37
2022/12/30 14:57:42;;;;;;;8.90;3.50;;;;;;;;;;108186;1273;42558;-37
2022/12/30 15:00:22;;;;;;;8.00;3.50;;;;;;;;;;108134;1272;39043;-37
2022/12/30 15:02:55;;;;;;;6.50;3.20;;;;;;;;;;108211;1257;40497;-37
2022/12/30 15:05:34;;;;;;;7.70;3.30;;;;;;;;;;108262;1267;43565;-37
2022/12/30 15:08:06;;;;;;;8.10;3.30;;;;;;;;;;108297;1265;42488;-37
2022/12/30 15:10:43;;;;;;;7.40;3.10;;;;;;;;;;108235;1261;39119;-37
2022/12/30 15:13:22;;;;;;;7.10;2.80;;;;;;;;;;108055;1257;40477;-37
2022/12/30 15:15:58;;;;;;;7.50;3.10;;;;;;;;;;108244;1273;43393;-37
2022/12/30 15:18:35;;;;;;;10.50;3.60;;;;;;;;;;108226;1267;42426;-37
2022/12/30 15:21:23;;;;;;;8.30;3.10;;;;;;;;;;108257;1259;41017;-37
2022/12/30 15:24:12;;;;;;;7.70;3.10;;;;;;;;;;108316;1263;45980;-37
2022/12/30 15:26:52;;;;;;;9.00;3.50;;;;;;;;;;108121;1261;43588;-37
2022/12/30 15:29:28;;;;;;;7.50;3.40;;;;;;;;;;108074;1267;43850;-38
2022/12/30 15:32:04;;;;;;;8.00;3.30;;;;;;;;;;108056;1257;39088;-38
2022/12/30 15:34:38;;;;;;;8.80;3.80;;;;;;;;;;108101;1260;40248;-41
2022/12/30 15:37:15;;;;;;;6.20;3.50;;;;;;;;;;108051;1274;43952;-41
2022/12/30 15:39:56;;;;;;;7.20;3.50;;;;;;;;;;108000;1268;42342;-41
2022/12/30 15:42:37;;;;;;;8.00;3.20;;;;;;;;;;108007;1258;39091;-42
2022/12/30 15:45:26;;;;;;;8.00;3.50;;;;;;;;;;108151;1272;41681;-40
2022/12/30 15:47:58;;;;;;;7.30;2.90;;;;;;;;;;108192;1257;43767;-41
2022/12/30 15:50:38;;;;;;;8.00;3.00;;;;;;;;;;108158;1261;42623;-43
2022/12/30 15:53:21;;;;;;;6.50;3.00;;;;;;;;;;108028;1259;39194;-43
2022/12/30 15:55:53;;;;;;;6.90;2.90;;;;;;;;;;108129;1260;40712;-40
2022/12/30 15:58:31;;;;;;;7.50;3.10;;;;;;;;;;108012;1270;43713;-39
2022/12/30 16:01:08;;;;;;;7.10;3.30;;;;;;;;;;107986;1273;42532;-40
2022/12/30 16:03:39;;;;;;;5.90;2.90;;;;;;;;;;108045;1262;39116;-39
2022/12/30 16:06:14;;;;;;;7.40;3.10;;;;;;;;;;108158;1261;41701;-38
2022/12/30 16:08:43;;;;;;;6.90;3.50;;;;;;;;;;108212;1260;44979;-38
2022/12/30 16:11:29;;;;;;;7.00;3.10;;;;;;;;;;107481;1257;892860;-39
2022/12/30 16:14:30;;;;;;;8.60;3.00;;;;;;;;;;108156;1270;39967;-39
2022/12/30 16:17:22;;;;;;;6.90;2.70;;;;;;;;;;107255;1271;893643;-38
2022/12/30 16:19:53;;;;;;;7.50;3.00;;;;;;;;;;108230;1269;43648;-37
2022/12/30 16:22:29;;;;;;;6.80;2.50;;;;;;;;;;108232;1265;42496;-37
2022/12/30 16:25:02;;;;;;;6.10;3.00;;;;;;;;;;108212;1261;39261;-38